Terminal Aerodrome Forecast
Issued by NWS

Home | Current Version | Previous Version | Text Only | Print | Product List | Glossary On
Versions: 1 2 3 4 5 6 7 8 9 10 11 12 13 14 15
000
FTUS46 KMTR 040600 AAA
TAFMRY
TAF AMD
KMRY 040621Z 0406/0506 14007KT P6SM FEW012
     FM041000 10004KT P6SM BKN010
     FM041600 VRB03KT P6SM SCT011
     FM041900 31007KT P6SM SKC
     FM050300 29004KT P6SM SCT010=

USA.gov is the U.S. government's official web portal to all federal, state and local government web resources and services.